Time;durP1;ratioP1;P1;durP2;ratioP2;P2;SDS_P1;SDS_P2;PMS_P1;PMS_P2;Temp;Humidity;BMP_temperature;BMP_pressure;BME280_temperature;BME280_humidity;BME280_pressure;Samples;Min_cycle;Max_cycle;Signal;HPM_P1;HPM_P2
2023/05/25 00:00:28;;;;;;;14.60;9.95;;;14.90;99.90;;;;;;4991243;28;20526;-79
2023/05/25 00:02:54;;;;;;;11.65;8.05;;;14.80;99.90;;;;;;4991176;28;20265;-79
2023/05/25 00:05:20;;;;;;;16.27;8.50;;;14.80;99.90;;;;;;4991416;28;20041;-79
2023/05/25 00:07:46;;;;;;;9.25;6.32;;;14.70;99.90;;;;;;4991390;28;20030;-79
2023/05/25 00:10:12;;;;;;;7.35;5.55;;;14.70;99.90;;;;;;4991375;28;20120;-79
2023/05/25 00:12:37;;;;;;;11.55;6.18;;;14.70;99.90;;;;;;4989852;28;20109;-80
2023/05/25 00:15:05;;;;;;;18.63;7.05;;;14.60;99.90;;;;;;4990979;28;20179;-78
2023/05/25 00:17:31;;;;;;;7.07;5.43;;;14.60;99.90;;;;;;4991389;28;20031;-79
2023/05/25 00:20:01;;;;;;;6.90;5.10;;;14.60;99.90;;;;;;4991150;28;20045;-79
2023/05/25 00:22:27;;;;;;;6.50;4.72;;;14.60;99.90;;;;;;5005988;28;20174;-78
2023/05/25 00:24:53;;;;;;;13.25;4.80;;;14.50;99.90;;;;;;4990896;28;20033;-79
2023/05/25 00:27:19;;;;;;;8.10;4.88;;;14.50;99.90;;;;;;4990951;28;20030;-79
2023/05/25 00:29:45;;;;;;;9.82;4.40;;;14.50;99.90;;;;;;4990721;28;20034;-79
2023/05/25 00:32:10;;;;;;;7.85;5.25;;;14.50;99.90;;;;;;4990973;28;20693;-80
2023/05/25 00:34:36;;;;;;;;;;;14.40;99.90;;;;;;4989978;28;20034;-79
2023/05/25 00:37:02;;;;;;;10.20;5.32;;;14.40;99.90;;;;;;4990769;28;19906;-79
2023/05/25 00:39:27;;;;;;;5.35;4.55;;;14.40;99.90;;;;;;4990705;28;20049;-79
2023/05/25 00:41:55;;;;;;;7.85;5.07;;;14.40;99.90;;;;;;4990670;28;20022;-79
2023/05/25 00:44:20;;;;;;;7.97;4.82;;;14.40;99.90;;;;;;4990687;28;20058;-80
2023/05/25 00:46:49;;;;;;;8.20;4.80;;;14.40;99.90;;;;;;4990666;28;20120;-79
2023/05/25 00:49:16;;;;;;;7.32;5.05;;;14.30;99.90;;;;;;4973048;28;20061;-80
2023/05/25 00:51:45;;;;;;;9.35;4.50;;;14.30;99.90;;;;;;4990132;28;20069;-79
2023/05/25 00:54:13;;;;;;;7.65;4.60;;;14.40;99.90;;;;;;4990616;28;20038;-79
2023/05/25 00:56:41;;;;;;;6.45;4.68;;;14.30;99.90;;;;;;4972942;28;20565;-79
2023/05/25 00:59:08;;;;;;;11.95;5.03;;;14.30;99.90;;;;;;4990211;28;20030;-79
2023/05/25 01:01:38;;;;;;;10.88;5.03;;;14.30;99.90;;;;;;4990457;28;20069;-79
2023/05/25 01:04:08;;;;;;;7.72;5.07;;;14.20;99.90;;;;;;4989131;28;20466;-80
2023/05/25 01:06:37;;;;;;;10.57;5.30;;;14.20;99.90;;;;;;4972838;28;20037;-79
2023/05/25 01:09:04;;;;;;;7.35;4.90;;;14.20;99.90;;;;;;4990078;28;20022;-79
2023/05/25 01:11:38;;;;;;;6.85;4.82;;;14.20;99.90;;;;;;4990208;28;20023;-78
2023/05/25 01:14:05;;;;;;;6.65;4.53;;;14.20;99.90;;;;;;4990159;28;20019;-80
2023/05/25 01:16:31;;;;;;;12.57;5.45;;;14.20;99.90;;;;;;4990065;28;20034;-79
2023/05/25 01:18:57;;;;;;;14.02;4.68;;;14.20;99.90;;;;;;4989985;28;20026;-78
2023/05/25 01:21:27;;;;;;;6.90;4.97;;;14.10;99.90;;;;;;4990259;28;20053;-79
2023/05/25 01:24:16;;;;;;;12.32;5.22;;;14.10;99.90;;;;;;4990116;28;20141;-79
2023/05/25 01:26:47;;;;;;;7.85;4.55;;;14.10;99.90;;;;;;4988917;28;20026;-77
2023/05/25 01:29:14;;;;;;;12.27;5.07;;;14.10;99.90;;;;;;4990167;28;20106;-79
2023/05/25 01:31:41;;;;;;;11.52;5.85;;;14.10;99.90;;;;;;4990205;28;20030;-79
2023/05/25 01:34:07;;;;;;;12.70;7.22;;;14.10;99.90;;;;;;4990087;28;20030;-80
2023/05/25 01:36:33;;;;;;;9.60;7.28;;;14.10;99.90;;;;;;4990127;28;20027;-79
2023/05/25 01:38:58;;;;;;;;;;;14.10;99.90;;;;;;4990278;28;20213;-79
2023/05/25 01:41:25;;;;;;;8.43;7.03;;;14.10;99.90;;;;;;4990141;28;19973;-79
2023/05/25 01:43:52;;;;;;;9.48;6.60;;;14.10;99.90;;;;;;4990116;28;20510;-79
2023/05/25 01:46:37;;;;;;;9.15;6.57;;;14.10;99.90;;;;;;5005325;28;20034;-79
2023/05/25 01:49:15;;;;;;;10.98;6.80;;;14.10;99.90;;;;;;4990036;28;20018;-79
2023/05/25 01:51:58;;;;;;;14.35;7.55;;;14.10;99.90;;;;;;4988681;28;20498;-79
2023/05/25 01:54:32;;;;;;;9.40;6.68;;;14.10;99.90;;;;;;4989808;28;20026;-79
2023/05/25 01:57:00;;;;;;;12.25;7.45;;;14.10;99.90;;;;;;4989681;28;20113;-79
2023/05/25 01:59:27;;;;;;;11.70;7.32;;;14.00;99.90;;;;;;4989554;28;20063;-78
2023/05/25 02:01:53;;;;;;;8.88;7.43;;;14.00;99.90;;;;;;4989640;28;20066;-78
2023/05/25 02:04:21;;;;;;;16.45;6.70;;;14.00;99.90;;;;;;4991985;28;20026;-79
2023/05/25 02:06:56;;;;;;;12.73;7.05;;;14.00;99.90;;;;;;4976057;28;20485;-78
2023/05/25 02:09:21;;;;;;;13.50;9.30;;;14.00;99.90;;;;;;4993576;28;20030;-79
2023/05/25 02:11:48;;;;;;;18.92;9.65;;;14.00;99.90;;;;;;4993382;28;20052;-78
2023/05/25 02:14:14;;;;;;;16.23;10.50;;;14.00;99.90;;;;;;4975959;28;20023;-79
2023/05/25 02:16:41;;;;;;;14.88;9.73;;;14.10;99.90;;;;;;4993525;28;20022;-79
2023/05/25 02:19:07;;;;;;;11.32;9.70;;;14.10;99.90;;;;;;4993055;28;20523;-79
2023/05/25 02:21:35;;;;;;;9.52;8.40;;;14.20;99.90;;;;;;4993383;28;20036;-79
2023/05/25 02:24:00;;;;;;;14.88;9.95;;;14.20;99.90;;;;;;4993222;28;20026;-79
2023/05/25 02:26:26;;;;;;;14.88;6.63;;;14.20;99.90;;;;;;4993212;28;20030;-78
2023/05/25 02:28:52;;;;;;;;;;;14.10;99.90;;;;;;4992428;28;20088;-79
2023/05/25 02:31:17;;;;;;;13.60;7.53;;;14.00;99.90;;;;;;4993255;28;19905;-80
2023/05/25 02:33:43;;;;;;;8.88;7.93;;;13.90;99.90;;;;;;4993235;28;20034;-79
2023/05/25 02:36:09;;;;;;;15.52;7.63;;;13.90;99.90;;;;;;4993191;28;20426;-80
2023/05/25 02:38:34;;;;;;;;;;;13.80;99.90;;;;;;4992441;28;20057;-78
2023/05/25 02:41:00;;;;;;;15.60;9.18;;;13.80;99.90;;;;;;4991554;28;19932;-79
2023/05/25 02:43:25;;;;;;;;;;;13.70;99.90;;;;;;4993383;28;20053;-79
2023/05/25 02:45:51;;;;;;;12.80;9.88;;;13.70;99.90;;;;;;4975299;28;19906;-79
2023/05/25 02:48:16;;;;;;;;;;;13.80;99.90;;;;;;4992188;28;20036;-79
2023/05/25 02:50:42;;;;;;;13.13;9.70;;;13.80;99.90;;;;;;4992736;28;20358;-79
2023/05/25 02:53:08;;;;;;;21.02;10.95;;;13.80;99.90;;;;;;4992732;28;20483;-79
2023/05/25 02:55:33;;;;;;;18.88;11.60;;;13.80;99.90;;;;;;4992697;28;20054;-80
2023/05/25 02:57:59;;;;;;;;;;;13.80;99.90;;;;;;4993149;28;20169;-79
2023/05/25 03:00:25;;;;;;;20.38;11.88;;;13.80;99.90;;;;;;4992508;28;19918;-79
2023/05/25 03:02:51;;;;;;;14.70;10.18;;;13.70;99.90;;;;;;4992284;28;20046;-79
2023/05/25 03:05:17;;;;;;;;;;;13.80;99.90;;;;;;4993019;28;20034;-79
2023/05/25 03:07:42;;;;;;;14.32;11.50;;;13.80;99.90;;;;;;4992632;28;20394;-79
2023/05/25 03:10:10;;;;;;;16.40;10.73;;;13.80;99.90;;;;;;4975180;28;20030;-79
2023/05/25 03:12:35;;;;;;;16.10;10.90;;;13.80;99.90;;;;;;4991035;28;20037;-79
2023/05/25 03:15:01;;;;;;;21.88;12.77;;;13.80;99.90;;;;;;4991445;28;20031;-79
2023/05/25 03:17:27;;;;;;;15.73;10.88;;;13.80;99.90;;;;;;4992261;28;20088;-79
2023/05/25 03:19:52;;;;;;;13.45;10.82;;;13.80;99.90;;;;;;4992274;28;20042;-79
2023/05/25 03:22:18;;;;;;;19.80;12.85;;;13.80;99.90;;;;;;4991074;28;20030;-79
2023/05/25 03:24:45;;;;;;;12.75;10.13;;;13.80;99.90;;;;;;4990786;28;20037;-79
2023/05/25 03:27:11;;;;;;;17.45;12.07;;;13.80;99.90;;;;;;4992056;28;20077;-79
2023/05/25 03:29:36;;;;;;;14.00;10.60;;;13.90;99.90;;;;;;4992117;28;20030;-79
2023/05/25 03:32:02;;;;;;;;;;;13.90;99.90;;;;;;4992713;28;20182;-79
2023/05/25 03:34:28;;;;;;;17.77;11.55;;;13.90;99.90;;;;;;4991987;28;19906;-79
2023/05/25 03:36:55;;;;;;;16.50;12.05;;;14.00;99.90;;;;;;4991807;28;20026;-78
2023/05/25 03:39:21;;;;;;;15.38;11.77;;;14.10;99.90;;;;;;4991513;28;20026;-79
2023/05/25 03:41:47;;;;;;;14.20;10.75;;;14.10;99.90;;;;;;4991831;28;20026;-79
2023/05/25 03:44:12;;;;;;;18.67;10.77;;;14.20;99.90;;;;;;4990734;28;20034;-79
2023/05/25 03:46:38;;;;;;;13.98;11.00;;;14.20;99.90;;;;;;4991860;28;20033;-78
2023/05/25 03:49:04;;;;;;;;;;;14.20;99.90;;;;;;4990619;28;20030;-79
2023/05/25 03:51:30;;;;;;;15.03;10.97;;;14.30;99.90;;;;;;4991784;28;19910;-79
2023/05/25 03:53:56;;;;;;;13.63;11.05;;;14.40;99.90;;;;;;4974096;28;20073;-79
2023/05/25 03:56:22;;;;;;;24.05;10.27;;;14.50;99.90;;;;;;4991668;28;20033;-79
2023/05/25 03:58:48;;;;;;;15.65;9.90;;;14.70;99.90;;;;;;4989913;28;20027;-79
2023/05/25 04:01:13;;;;;;;18.90;9.95;;;14.80;99.90;;;;;;4989941;28;20121;-79
2023/05/25 04:03:39;;;;;;;14.50;9.63;;;15.00;99.90;;;;;;4991228;28;20157;-80
2023/05/25 04:06:05;;;;;;;15.13;8.98;;;15.20;99.90;;;;;;4991536;28;20805;-79
2023/05/25 04:08:31;;;;;;;13.77;8.82;;;15.30;99.90;;;;;;4991360;28;20026;-80
2023/05/25 04:10:56;;;;;;;10.38;8.23;;;15.40;99.90;;;;;;4991320;28;20030;-79
2023/05/25 04:13:22;;;;;;;9.48;7.70;;;15.60;99.90;;;;;;4991334;28;20034;-80
2023/05/25 04:15:49;;;;;;;10.90;8.43;;;15.70;99.90;;;;;;4990311;28;20066;-80
2023/05/25 04:18:15;;;;;;;11.25;8.48;;;15.90;99.90;;;;;;4991223;28;20030;-79
2023/05/25 04:20:40;;;;;;;13.48;8.52;;;16.10;99.90;;;;;;5006046;28;20039;-80
2023/05/25 04:23:06;;;;;;;13.80;8.40;;;16.40;99.90;;;;;;4990862;28;20022;-80
2023/05/25 04:25:32;;;;;;;11.57;8.00;;;16.70;99.90;;;;;;4991206;28;20399;-80
2023/05/25 04:27:57;;;;;;;10.90;8.10;;;16.80;99.90;;;;;;4991082;28;20490;-80
2023/05/25 04:30:23;;;;;;;11.55;7.60;;;16.90;99.90;;;;;;4989620;28;20034;-80
2023/05/25 04:32:49;;;;;;;9.07;6.45;;;16.90;99.90;;;;;;4990804;28;20030;-79
2023/05/25 04:35:15;;;;;;;12.07;7.07;;;17.10;99.90;;;;;;4989451;28;20023;-80
2023/05/25 04:37:41;;;;;;;9.68;6.50;;;17.20;99.90;;;;;;4990916;28;20022;-80
2023/05/25 04:40:12;;;;;;;9.73;7.25;;;17.30;99.90;;;;;;4990701;28;20088;-79
2023/05/25 04:42:41;;;;;;;8.48;7.13;;;17.40;99.90;;;;;;4990568;28;20031;-79
2023/05/25 04:45:10;;;;;;;11.23;7.47;;;17.50;99.90;;;;;;4990407;28;20498;-80
2023/05/25 04:47:39;;;;;;;7.55;6.28;;;17.60;99.90;;;;;;4990664;28;20026;-78
2023/05/25 04:50:08;;;;;;;13.18;6.13;;;17.70;99.90;;;;;;4990638;28;20360;-78
2023/05/25 04:52:33;;;;;;;7.47;6.10;;;17.90;99.90;;;;;;4973485;28;20116;-80
2023/05/25 04:54:59;;;;;;;7.82;6.13;;;18.00;99.90;;;;;;4990925;28;20105;-79
2023/05/25 04:57:27;;;;;;;9.98;6.10;;;18.10;99.90;;;;;;4989483;28;20712;-79
2023/05/25 04:59:53;;;;;;;15.75;6.20;;;18.20;99.90;;;;;;4990378;28;20038;-80
2023/05/25 05:02:18;;;;;;;12.23;5.90;;;18.30;99.90;;;;;;4990413;28;20077;-79
2023/05/25 05:04:44;;;;;;;12.40;6.68;;;18.40;99.90;;;;;;4972636;28;20096;-79
2023/05/25 05:07:10;;;;;;;12.70;5.97;;;18.60;99.90;;;;;;4990091;28;20029;-79
2023/05/25 05:09:36;;;;;;;12.10;7.07;;;18.70;99.90;;;;;;4990048;28;20507;-78
2023/05/25 05:12:02;;;;;;;8.88;6.28;;;19.00;99.90;;;;;;4990141;28;20035;-78
2023/05/25 05:14:28;;;;;;;8.65;6.10;;;19.20;99.90;;;;;;4990090;28;20064;-78
2023/05/25 05:16:54;;;;;;;13.02;5.95;;;19.40;99.90;;;;;;4990018;28;20026;-80
2023/05/25 05:19:19;;;;;;;7.68;5.60;;;19.50;99.90;;;;;;4989921;28;20041;-79
2023/05/25 05:21:45;;;;;;;7.40;5.88;;;19.60;99.90;;;;;;4989961;28;20034;-79
2023/05/25 05:24:11;;;;;;;9.02;6.35;;;19.60;99.90;;;;;;4989962;28;20105;-76
2023/05/25 05:26:38;;;;;;;10.55;6.00;;;19.70;99.90;;;;;;4989918;28;20626;-77
2023/05/25 05:29:04;;;;;;;11.57;6.20;;;20.00;99.90;;;;;;4989939;28;20486;-77
2023/05/25 05:31:30;;;;;;;8.70;6.13;;;20.20;99.90;;;;;;4990186;28;20062;-78
2023/05/25 05:33:56;;;;;;;10.98;6.28;;;20.20;99.90;;;;;;4989985;28;20096;-77
2023/05/25 05:36:22;;;;;;;8.13;5.75;;;20.20;99.90;;;;;;4972555;28;20569;-76
2023/05/25 05:38:48;;;;;;;7.82;6.25;;;20.30;99.90;;;;;;4990769;28;20021;-77
2023/05/25 05:41:14;;;;;;;8.32;6.43;;;20.50;99.90;;;;;;4994088;28;20422;-77
2023/05/25 05:43:44;;;;;;;7.78;5.50;;;20.50;99.90;;;;;;4994353;28;20427;-77
2023/05/25 05:46:10;;;;;;;13.13;6.55;;;20.70;99.90;;;;;;4992528;28;20042;-77
2023/05/25 05:48:36;;;;;;;11.00;6.07;;;21.10;99.90;;;;;;4993848;28;20035;-77
2023/05/25 05:51:03;;;;;;;8.23;6.10;;;21.80;99.90;;;;;;4993738;28;20022;-77
2023/05/25 05:53:29;;;;;;;9.80;6.28;;;22.80;99.90;;;;;;4976372;28;20041;-76
2023/05/25 05:55:57;;;;;;;7.88;5.00;;;23.90;99.50;;;;;;4993570;28;20093;-79
2023/05/25 05:58:25;;;;;;;12.13;6.40;;;24.90;91.30;;;;;;4993555;28;20077;-78
2023/05/25 06:00:52;;;;;;;11.45;5.10;;;25.70;83.40;;;;;;5008397;28;20125;-77
2023/05/25 06:03:19;;;;;;;6.65;5.25;;;26.40;79.80;;;;;;4993436;28;20050;-77
2023/05/25 06:05:45;;;;;;;8.38;5.82;;;27.20;73.50;;;;;;4993566;28;20054;-77
2023/05/25 06:08:10;;;;;;;17.33;6.13;;;27.90;70.70;;;;;;4993379;28;20495;-78
2023/05/25 06:10:37;;;;;;;10.23;5.90;;;28.50;68.70;;;;;;4993638;28;20031;-78
2023/05/25 06:13:03;;;;;;;8.88;5.15;;;29.10;65.70;;;;;;4993459;28;20034;-78
2023/05/25 06:15:28;;;;;;;9.15;4.95;;;29.50;62.10;;;;;;4993120;28;20410;-77
2023/05/25 06:17:54;;;;;;;8.60;5.30;;;29.80;60.60;;;;;;4993260;28;20072;-77
2023/05/25 06:20:20;;;;;;;8.98;5.32;;;30.20;59.40;;;;;;4993261;28;20061;-79
2023/05/25 06:22:45;;;;;;;9.10;5.50;;;30.60;58.40;;;;;;4993112;28;20400;-77
2023/05/25 06:25:12;;;;;;;7.90;5.72;;;30.70;56.60;;;;;;4993029;28;20026;-77
2023/05/25 06:27:38;;;;;;;7.97;5.07;;;31.00;56.30;;;;;;4993244;28;20034;-78
2023/05/25 06:30:04;;;;;;;10.23;5.57;;;31.30;55.40;;;;;;4991557;28;20141;-78
2023/05/25 06:32:30;;;;;;;6.85;5.28;;;31.30;54.80;;;;;;4993077;28;20026;-77
2023/05/25 06:34:55;;;;;;;5.97;4.70;;;31.30;54.10;;;;;;4993074;28;20045;-79
2023/05/25 06:37:21;;;;;;;6.00;5.30;;;31.40;53.20;;;;;;4992808;28;20391;-77
2023/05/25 06:39:47;;;;;;;9.00;4.55;;;31.50;53.30;;;;;;4992753;28;20078;-79
2023/05/25 06:42:12;;;;;;;7.20;4.53;;;31.30;52.90;;;;;;4991656;28;20034;-77
2023/05/25 06:44:38;;;;;;;11.75;4.95;;;31.30;53.70;;;;;;4991367;28;20038;-77
2023/05/25 06:47:03;;;;;;;9.10;4.80;;;31.20;53.50;;;;;;4992658;28;20046;-77
2023/05/25 06:49:29;;;;;;;6.55;4.82;;;31.30;53.10;;;;;;4992644;28;20487;-77
2023/05/25 06:51:55;;;;;;;6.53;4.45;;;31.40;53.20;;;;;;5007734;28;20034;-78
2023/05/25 06:54:20;;;;;;;8.07;5.00;;;31.30;51.80;;;;;;4992687;28;20503;-78
2023/05/25 06:56:46;;;;;;;7.53;4.43;;;31.50;52.80;;;;;;4992580;28;20767;-77
2023/05/25 06:59:12;;;;;;;6.82;4.90;;;31.60;51.70;;;;;;4992371;28;20522;-78
2023/05/25 07:01:37;;;;;;;6.90;4.47;;;31.80;51.30;;;;;;4992399;28;20051;-79
2023/05/25 07:04:03;;;;;;;7.35;4.82;;;31.80;52.00;;;;;;4992470;28;20038;-78
2023/05/25 07:06:29;;;;;;;6.72;4.70;;;31.80;51.90;;;;;;4992391;28;20035;-77
2023/05/25 07:08:54;;;;;;;5.95;4.57;;;31.60;52.50;;;;;;4992230;28;20479;-77
2023/05/25 07:11:20;;;;;;;5.82;4.93;;;31.50;52.50;;;;;;4992349;28;20029;-78
2023/05/25 07:13:47;;;;;;;6.63;4.65;;;31.60;52.10;;;;;;4992153;28;20030;-78
2023/05/25 07:16:13;;;;;;;8.15;4.03;;;31.50;53.10;;;;;;4992357;28;20026;-77
2023/05/25 07:18:39;;;;;;;9.82;3.78;;;31.50;52.40;;;;;;4992228;28;20113;-77
2023/05/25 07:21:08;;;;;;;7.95;4.60;;;31.70;52.80;;;;;;4992065;28;20057;-78
2023/05/25 07:23:35;;;;;;;5.72;4.53;;;31.80;51.70;;;;;;4992143;28;20033;-78
2023/05/25 07:26:01;;;;;;;7.13;4.68;;;32.00;50.50;;;;;;4992040;28;20033;-78
2023/05/25 07:28:26;;;;;;;5.55;4.55;;;32.30;50.60;;;;;;4991827;28;20022;-78
2023/05/25 07:30:52;;;;;;;8.52;4.55;;;32.20;49.80;;;;;;5006775;28;20030;-76
2023/05/25 07:33:17;;;;;;;5.75;4.80;;;32.00;50.60;;;;;;4991870;28;20030;-78
2023/05/25 07:35:43;;;;;;;9.25;4.93;;;31.80;52.00;;;;;;4991865;28;20105;-78
2023/05/25 07:38:09;;;;;;;8.35;4.28;;;31.70;52.50;;;;;;4991725;28;20442;-78
2023/05/25 07:40:35;;;;;;;7.10;3.92;;;31.60;53.10;;;;;;4991605;28;20046;-78
2023/05/25 07:43:01;;;;;;;5.63;4.07;;;31.50;52.70;;;;;;4991511;28;20518;-79
2023/05/25 07:45:27;;;;;;;4.65;4.25;;;31.60;51.80;;;;;;4991470;28;20030;-77
2023/05/25 07:47:52;;;;;;;6.95;4.20;;;31.60;51.20;;;;;;4991646;28;20376;-77
2023/05/25 07:50:18;;;;;;;8.57;4.07;;;31.60;50.70;;;;;;4991482;28;20060;-77
2023/05/25 07:52:44;;;;;;;7.28;3.90;;;31.70;51.20;;;;;;4991669;28;20030;-78
2023/05/25 07:55:10;;;;;;;5.68;4.60;;;31.70;51.10;;;;;;4991448;28;20042;-77
2023/05/25 07:57:35;;;;;;;8.02;4.25;;;31.40;51.70;;;;;;4991612;28;20026;-77
2023/05/25 08:00:04;;;;;;;9.95;4.47;;;31.60;51.50;;;;;;4990099;28;20093;-78
2023/05/25 08:02:30;;;;;;;4.97;4.07;;;31.70;50.90;;;;;;4991108;28;20567;-77
2023/05/25 08:04:56;;;;;;;8.73;4.22;;;31.90;51.80;;;;;;4991261;28;20117;-77
2023/05/25 08:07:23;;;;;;;5.57;3.90;;;32.00;50.90;;;;;;4991203;28;20529;-77
2023/05/25 08:09:49;;;;;;;14.00;4.80;;;31.80;51.10;;;;;;4991129;28;20376;-76
2023/05/25 08:12:15;;;;;;;9.82;4.25;;;31.50;50.10;;;;;;4991189;28;20587;-78
2023/05/25 08:14:40;;;;;;;6.97;4.18;;;31.00;50.40;;;;;;4991217;28;20064;-77
2023/05/25 08:17:06;;;;;;;6.07;4.70;;;30.70;52.40;;;;;;4990948;28;20518;-77
2023/05/25 08:19:32;;;;;;;9.75;4.22;;;31.00;53.80;;;;;;4990919;28;20064;-77
2023/05/25 08:21:58;;;;;;;7.68;4.43;;;31.30;53.20;;;;;;4989867;28;20168;-76
2023/05/25 08:24:23;;;;;;;6.15;4.35;;;31.40;54.10;;;;;;4991317;28;20505;-78
2023/05/25 08:26:49;;;;;;;10.77;4.47;;;31.40;51.90;;;;;;4990551;28;20606;-77
2023/05/25 08:29:15;;;;;;;10.13;5.10;;;31.60;51.30;;;;;;4990955;28;20030;-78
2023/05/25 08:31:42;;;;;;;5.90;4.68;;;31.20;52.80;;;;;;4991135;28;20037;-77
2023/05/25 08:34:08;;;;;;;7.03;4.10;;;31.50;52.40;;;;;;4990833;28;20175;-77
2023/05/25 08:36:34;;;;;;;6.65;4.18;;;31.80;51.30;;;;;;4990626;28;20566;-75
2023/05/25 08:39:01;;;;;;;5.95;4.28;;;31.80;51.00;;;;;;4972921;28;20029;-76
2023/05/25 08:41:28;;;;;;;8.20;4.75;;;32.10;51.00;;;;;;4990581;28;20034;-76
2023/05/25 08:43:54;;;;;;;8.10;4.50;;;32.00;52.30;;;;;;4990692;28;20517;-76
2023/05/25 08:46:30;;;;;;;7.93;4.60;;;32.20;52.40;;;;;;5005648;28;20030;-75
2023/05/25 08:49:03;;;;;;;8.07;3.67;;;32.30;51.20;;;;;;4990426;28;20018;-76
2023/05/25 08:51:32;;;;;;;6.57;4.72;;;32.30;50.10;;;;;;4990555;28;20030;-77
2023/05/25 08:54:03;;;;;;;8.98;4.32;;;32.20;49.00;;;;;;4990820;28;20404;-76
2023/05/25 08:56:33;;;;;;;6.85;4.55;;;32.10;50.90;;;;;;4990457;28;20546;-76
2023/05/25 08:59:15;;;;;;;7.60;4.80;;;32.60;50.00;;;;;;4990052;28;20026;-76
2023/05/25 09:01:44;;;;;;;7.78;4.30;;;32.50;48.10;;;;;;4990319;28;20062;-76
2023/05/25 09:04:13;;;;;;;8.80;4.00;;;32.40;50.10;;;;;;4990336;28;20451;-76
2023/05/25 09:06:39;;;;;;;10.30;4.57;;;32.50;51.40;;;;;;4990192;28;20030;-77
2023/05/25 09:09:04;;;;;;;6.55;4.32;;;32.40;50.80;;;;;;4990075;28;20544;-77
2023/05/25 09:11:32;;;;;;;11.40;4.72;;;32.20;51.60;;;;;;4988833;28;20033;-76
2023/05/25 09:13:58;;;;;;;11.50;4.50;;;32.30;50.40;;;;;;4988177;28;20518;-76
2023/05/25 09:16:25;;;;;;;6.43;4.35;;;32.50;49.90;;;;;;4990233;28;20045;-76
2023/05/25 09:18:50;;;;;;;4.88;4.10;;;32.20;50.90;;;;;;4989929;28;20026;-75
2023/05/25 09:21:16;;;;;;;5.47;3.97;;;32.40;50.20;;;;;;4990115;28;20023;-75
2023/05/25 09:23:42;;;;;;;6.30;4.18;;;32.40;50.20;;;;;;4990218;28;20057;-76
2023/05/25 09:26:08;;;;;;;12.80;4.15;;;32.00;47.30;;;;;;4990160;28;20062;-76
2023/05/25 09:28:34;;;;;;;8.40;4.43;;;32.00;49.10;;;;;;4989937;28;20132;-76
2023/05/25 09:31:00;;;;;;;8.38;4.50;;;31.60;50.40;;;;;;4989960;28;20030;-77
2023/05/25 09:33:25;;;;;;;5.78;4.38;;;31.60;50.80;;;;;;4989991;28;20042;-76
2023/05/25 09:35:51;;;;;;;6.00;3.40;;;31.90;50.70;;;;;;4990193;28;20126;-76
2023/05/25 09:38:17;;;;;;;10.00;4.75;;;32.30;52.10;;;;;;4990130;28;20105;-76
2023/05/25 09:40:44;;;;;;;6.63;4.57;;;32.60;50.50;;;;;;4989833;28;20410;-75
2023/05/25 09:43:12;;;;;;;6.47;4.55;;;32.70;50.60;;;;;;4972274;28;20036;-76
2023/05/25 09:45:37;;;;;;;5.53;3.90;;;32.80;50.40;;;;;;4989881;28;20037;-75
2023/05/25 09:48:06;;;;;;;6.55;3.90;;;32.90;50.50;;;;;;4990125;28;20030;-77
2023/05/25 09:50:32;;;;;;;8.68;4.07;;;32.60;50.50;;;;;;4989884;28;20054;-75
2023/05/25 09:52:59;;;;;;;6.72;4.10;;;32.10;51.10;;;;;;4988455;28;20465;-75
2023/05/25 09:55:29;;;;;;;7.13;4.15;;;32.30;52.80;;;;;;4989798;28;20072;-77
2023/05/25 09:57:56;;;;;;;4.78;3.80;;;32.30;49.60;;;;;;4989846;28;20026;-75
2023/05/25 10:00:23;;;;;;;6.57;3.92;;;32.50;50.40;;;;;;4989709;28;20046;-75
2023/05/25 10:02:50;;;;;;;5.47;4.05;;;32.30;50.10;;;;;;4989410;28;20057;-76
2023/05/25 10:05:16;;;;;;;6.78;4.20;;;31.50;48.50;;;;;;4988272;28;20062;-75
2023/05/25 10:07:44;;;;;;;5.03;4.10;;;30.70;50.60;;;;;;4989566;28;20494;-77
2023/05/25 10:10:14;;;;;;;5.82;3.72;;;30.20;53.70;;;;;;4989566;28;20077;-76
2023/05/25 10:12:41;;;;;;;5.60;3.75;;;29.80;56.00;;;;;;4989559;28;20070;-75
2023/05/25 10:15:09;;;;;;;7.65;4.55;;;29.70;55.20;;;;;;4972013;28;20076;-77
2023/05/25 10:17:44;;;;;;;4.85;3.70;;;29.50;54.50;;;;;;4972189;28;20037;-75
2023/05/25 10:20:11;;;;;;;6.65;3.92;;;29.30;58.50;;;;;;4989687;28;20034;-76
2023/05/25 10:22:55;;;;;;;5.00;3.90;;;29.20;57.10;;;;;;4989631;28;20042;-77
2023/05/25 10:25:26;;;;;;;7.40;4.25;;;29.00;54.80;;;;;;4991319;28;20560;-75
2023/05/25 10:28:00;;;;;;;6.13;3.53;;;28.50;56.80;;;;;;4993154;28;20034;-75
2023/05/25 10:30:27;;;;;;;10.52;4.25;;;28.40;57.20;;;;;;4993168;28;20395;-76
2023/05/25 10:32:55;;;;;;;8.63;4.28;;;28.20;57.10;;;;;;4992974;28;20033;-76
2023/05/25 10:35:22;;;;;;;7.10;4.97;;;28.10;59.40;;;;;;4991707;28;20022;-75
2023/05/25 10:37:51;;;;;;;8.15;4.68;;;28.10;59.90;;;;;;4992975;28;20041;-76
2023/05/25 10:40:18;;;;;;;7.70;4.30;;;28.10;60.90;;;;;;4993103;28;20038;-77
2023/05/25 10:42:45;;;;;;;9.93;4.30;;;28.10;60.20;;;;;;4992957;28;20038;-77
2023/05/25 10:45:11;;;;;;;7.78;3.83;;;28.10;62.60;;;;;;4992782;28;20507;-77
2023/05/25 10:47:42;;;;;;;6.00;4.20;;;28.10;60.10;;;;;;4992787;28;20195;-76
2023/05/25 10:50:33;;;;;;;5.80;4.25;;;28.10;61.40;;;;;;4992722;28;20101;-75
2023/05/25 10:53:00;;;;;;;6.20;4.80;;;28.00;62.20;;;;;;4991395;28;20026;-75
2023/05/25 10:55:30;;;;;;;6.55;5.05;;;28.00;60.80;;;;;;4992617;28;20066;-76
2023/05/25 10:58:14;;;;;;;6.35;5.07;;;27.90;61.70;;;;;;4975042;28;20036;-75
2023/05/25 11:00:40;;;;;;;10.60;4.38;;;27.90;62.50;;;;;;4992413;28;20068;-75
2023/05/25 11:03:06;;;;;;;9.10;4.38;;;28.10;64.70;;;;;;4974783;28;20104;-75
2023/05/25 11:05:39;;;;;;;6.72;4.70;;;28.30;62.80;;;;;;4992767;28;20029;-75
2023/05/25 11:08:07;;;;;;;8.15;4.10;;;28.50;62.50;;;;;;4992483;28;20030;-76
2023/05/25 11:10:48;;;;;;;8.27;4.00;;;28.50;60.30;;;;;;4992308;28;20084;-76
2023/05/25 11:13:22;;;;;;;7.85;4.60;;;28.50;59.10;;;;;;4991002;28;20039;-77
2023/05/25 11:16:20;;;;;;;8.95;4.50;;;28.30;61.40;;;;;;4990872;28;20081;-76
2023/05/25 11:19:15;;;;;;;6.03;4.75;;;28.30;62.60;;;;;;4992171;28;20061;-75
2023/05/25 11:21:43;;;;;;;11.40;5.75;;;28.30;60.30;;;;;;4990771;28;20105;-76
2023/05/25 11:24:16;;;;;;;5.53;4.15;;;28.40;61.20;;;;;;4992158;28;20121;-77
2023/05/25 11:26:54;;;;;;;10.00;4.68;;;28.30;61.90;;;;;;4992148;28;20038;-76
2023/05/25 11:29:24;;;;;;;8.43;4.57;;;27.90;60.90;;;;;;4991993;28;20037;-77
2023/05/25 11:31:55;;;;;;;6.57;4.63;;;27.60;61.40;;;;;;4992227;28;20026;-77
2023/05/25 11:34:24;;;;;;;6.70;4.60;;;27.40;64.70;;;;;;5006892;28;20033;-77
2023/05/25 11:36:56;;;;;;;6.05;4.22;;;27.30;65.60;;;;;;4990929;28;20023;-76
2023/05/25 11:39:22;;;;;;;8.23;4.30;;;27.40;65.10;;;;;;4991690;28;20034;-77
2023/05/25 11:41:54;;;;;;;12.20;4.18;;;27.50;64.90;;;;;;4991831;28;20037;-75
2023/05/25 11:44:28;;;;;;;6.05;3.80;;;27.40;64.50;;;;;;4991734;28;20026;-77
2023/05/25 11:46:57;;;;;;;6.43;4.75;;;27.30;65.60;;;;;;4991551;28;20036;-77
2023/05/25 11:49:26;;;;;;;5.60;4.65;;;27.20;65.40;;;;;;4991586;28;20061;-75
2023/05/25 11:51:56;;;;;;;6.40;4.22;;;27.10;66.40;;;;;;4991625;28;20026;-75
2023/05/25 11:54:26;;;;;;;6.82;4.55;;;27.10;66.80;;;;;;4973911;28;20032;-77
2023/05/25 11:56:58;;;;;;;5.82;4.47;;;27.20;67.30;;;;;;4973888;28;20038;-76
2023/05/25 11:59:28;;;;;;;8.65;4.43;;;27.30;67.80;;;;;;4991279;28;20042;-75
2023/05/25 12:02:03;;;;;;;8.63;4.75;;;27.30;68.80;;;;;;4991269;28;20061;-75
2023/05/25 12:04:31;;;;;;;12.95;4.88;;;27.40;67.80;;;;;;4991554;28;20112;-77
2023/05/25 12:07:04;;;;;;;6.82;5.15;;;27.50;67.30;;;;;;4991195;28;20018;-76
2023/05/25 12:09:30;;;;;;;7.00;4.25;;;27.60;68.90;;;;;;4991196;28;20566;-76
2023/05/25 12:11:57;;;;;;;6.38;4.15;;;27.80;69.00;;;;;;4991184;28;20038;-76
2023/05/25 12:14:23;;;;;;;6.05;4.38;;;27.90;66.30;;;;;;4991230;28;20367;-75
2023/05/25 12:16:49;;;;;;;6.32;4.40;;;28.20;65.50;;;;;;4990985;28;20423;-77
2023/05/25 12:19:16;;;;;;;6.32;4.05;;;28.30;65.60;;;;;;4990813;28;20032;-75
2023/05/25 12:21:43;;;;;;;8.23;4.43;;;28.30;63.70;;;;;;4989720;28;20030;-77
2023/05/25 12:24:11;;;;;;;7.05;3.90;;;28.40;64.30;;;;;;4991031;28;20023;-78
2023/05/25 12:26:56;;;;;;;5.45;4.22;;;28.20;63.50;;;;;;4973467;28;20065;-77
2023/05/25 12:29:21;;;;;;;5.88;4.45;;;27.80;63.80;;;;;;4990820;28;20033;-77
2023/05/25 12:31:47;;;;;;;12.73;5.00;;;27.10;65.70;;;;;;4991048;28;20491;-77
2023/05/25 12:34:17;;;;;;;11.90;4.70;;;26.70;67.20;;;;;;4990905;28;20106;-75
2023/05/25 12:36:51;;;;;;;5.63;4.43;;;26.60;70.80;;;;;;4991143;28;20398;-78
2023/05/25 12:39:38;;;;;;;6.55;4.82;;;26.50;71.70;;;;;;4990525;28;20057;-77
2023/05/25 12:42:05;;;;;;;10.73;4.70;;;26.60;71.30;;;;;;4990942;28;20111;-77
2023/05/25 12:44:36;;;;;;;7.13;4.60;;;26.60;70.60;;;;;;4990738;28;20557;-78
2023/05/25 12:47:10;;;;;;;5.18;4.57;;;26.70;69.30;;;;;;4990511;28;20038;-77